Time;durP1;ratioP1;P1;durP2;ratioP2;P2;SDS_P1;SDS_P2;PMS_P1;PMS_P2;Temp;Humidity;BMP_temperature;BMP_pressure;BME280_temperature;BME280_humidity;BME280_pressure;Samples;Min_cycle;Max_cycle;Signal;HPM_P1;HPM_P2
2023/03/24 00:02:27;;;;;;;5.72;2.53;;;;;;;15.35;75.30;99721.78;5059129;28;20028;-43
2023/03/24 00:04:57;;;;;;;5.32;3.03;;;;;;;15.19;75.71;99717.78;5062866;28;20120;-40
2023/03/24 00:07:23;;;;;;;6.95;2.75;;;;;;;15.39;74.72;99699.78;5058988;28;20028;-42
2023/03/24 00:09:48;;;;;;;6.10;3.05;;;;;;;15.24;75.67;99700.19;5063858;28;20145;-41
2023/03/24 00:12:17;;;;;;;6.00;2.80;;;;;;;15.02;76.63;99695.41;5059566;28;20479;-40
2023/03/24 00:14:45;;;;;;;6.32;2.83;;;;;;;15.40;74.91;99697.13;5062615;28;20498;-39
2023/03/24 00:17:16;;;;;;;7.88;3.33;;;;;;;14.91;76.88;99710.56;5042825;28;20044;-38
2023/03/24 00:19:44;;;;;;;6.22;3.00;;;;;;;15.26;75.57;99693.97;5061265;28;20037;-39
2023/03/24 00:22:13;;;;;;;7.25;3.20;;;;;;;15.26;75.30;99677.34;5062965;28;20060;-43
2023/03/24 00:24:39;;;;;;;5.38;2.88;;;;;;;15.59;74.48;99686.19;5063181;28;20033;-40
2023/03/24 00:27:05;;;;;;;4.95;2.90;;;;;;;15.34;75.05;99697.28;5066651;28;20031;-40
2023/03/24 00:29:31;;;;;;;7.28;2.70;;;;;;;15.14;75.74;99677.66;5064716;28;20032;-40
2023/03/24 00:31:56;;;;;;;5.78;2.92;;;;;;;15.53;74.24;99676.69;5067198;28;20037;-41
2023/03/24 00:34:22;;;;;;;5.38;2.97;;;;;;;15.07;75.68;99662.94;5063744;28;20040;-43
2023/03/24 00:36:49;;;;;;;6.57;2.60;;;;;;;15.56;73.83;99679.22;5065736;28;20052;-41
2023/03/24 00:39:16;;;;;;;4.70;2.70;;;;;;;15.37;74.88;99659.56;5059933;28;20043;-40
2023/03/24 00:41:43;;;;;;;5.50;2.63;;;;;;;15.22;75.38;99655.56;5065278;28;20037;-40
2023/03/24 00:44:16;;;;;;;7.82;2.70;;;;;;;14.94;75.71;99657.97;5065667;28;20060;-40
2023/03/24 00:46:54;;;;;;;5.50;2.60;;;;;;;15.21;75.18;99648.59;5061901;28;20039;-39
2023/03/24 00:49:40;;;;;;;4.10;2.67;;;;;;;15.35;74.96;99643.88;5061337;28;20036;-40
2023/03/24 00:52:08;;;;;;;4.30;2.60;;;;;;;15.29;74.85;99659.78;5064928;28;20064;-41
2023/03/24 00:54:35;;;;;;;4.45;2.60;;;;;;;15.57;74.09;99643.31;5059572;28;20094;-39
2023/03/24 00:57:02;;;;;;;5.80;2.65;;;;;;;15.56;74.06;99652.97;5064297;28;20040;-36
2023/03/24 00:59:28;;;;;;;4.70;2.60;;;;;;;15.31;74.83;99647.44;5061293;28;20033;-39
2023/03/24 01:01:55;;;;;;;6.35;2.70;;;;;;;15.42;74.93;99631.44;5063967;28;20051;-39
2023/03/24 01:04:23;;;;;;;5.35;2.47;;;;;;;15.56;74.35;99637.19;5058876;28;20029;-39
2023/03/24 01:06:51;;;;;;;3.65;2.45;;;;;;;15.49;74.49;99642.66;5061721;28;20040;-39
2023/03/24 01:09:16;;;;;;;5.50;2.75;;;;;;;15.56;74.49;99633.72;5057124;28;20061;-39
2023/03/24 01:11:42;;;;;;;5.22;2.88;;;;;;;15.42;75.02;99636.69;5061011;28;20037;-37
2023/03/24 01:14:09;;;;;;;4.22;2.70;;;;;;;15.46;75.24;99630.44;5060921;28;20402;-41
2023/03/24 01:16:35;;;;;;;5.35;2.70;;;;;;;15.48;75.03;99633.91;5057423;28;20032;-39
2023/03/24 01:19:00;;;;;;;4.95;2.83;;;;;;;15.00;77.55;99625.50;5060481;28;20080;-41
2023/03/24 01:21:26;;;;;;;4.05;2.55;;;;;;;15.46;75.90;99627.81;5057417;28;20033;-37
2023/03/24 01:23:52;;;;;;;4.70;2.67;;;;;;;15.36;75.83;99642.09;5061702;28;20490;-38
2023/03/24 01:26:18;;;;;;;5.43;2.80;;;;;;;15.07;76.47;99648.06;5057677;28;20036;-41
2023/03/24 01:28:44;;;;;;;5.45;2.70;;;;;;;15.21;76.51;99643.34;5061358;28;22387;-41
2023/03/24 01:31:10;;;;;;;4.03;2.50;;;;;;;15.07;77.53;99639.31;5058339;28;20520;-39
2023/03/24 01:33:37;;;;;;;5.30;2.80;;;;;;;15.00;78.00;99652.59;5059778;28;20190;-41
2023/03/24 01:36:03;;;;;;;7.18;2.65;;;;;;;14.82;77.77;99653.03;5063564;28;20029;-39
2023/03/24 01:38:29;;;;;;;4.35;2.28;;;;;;;14.63;78.78;99662.22;5059981;28;20024;-41
2023/03/24 01:40:54;;;;;;;6.43;2.60;;;;;;;14.71;78.83;99683.91;5063961;28;20128;-42
2023/03/24 01:43:23;;;;;;;4.32;2.40;;;;;;;14.42;78.93;99667.94;5060140;28;20032;-42
2023/03/24 01:46:07;;;;;;;6.20;2.28;;;;;;;14.31;78.55;99696.09;5061692;28;20028;-39
2023/03/24 01:48:57;;;;;;;9.45;2.30;;;;;;;14.14;76.88;99699.06;5058461;28;20143;-40
2023/03/24 01:51:26;;;;;;;6.03;1.80;;;;;;;14.07;76.92;99715.81;5058962;28;20043;-39
2023/03/24 01:54:13;;;;;;;7.60;2.00;;;;;;;14.10;76.92;99728.84;5060729;28;20071;-41
2023/03/24 01:56:46;;;;;;;9.82;1.70;;;;;;;14.19;75.62;99732.16;5057304;28;20040;-40
2023/03/24 01:59:17;;;;;;;6.60;1.70;;;;;;;13.72;75.74;99729.56;5056626;28;20064;-39
2023/03/24 02:01:44;;;;;;;10.35;1.80;;;;;;;13.85;75.16;99738.91;5061056;28;20036;-39
2023/03/24 02:04:10;;;;;;;7.15;1.60;;;;;;;13.85;74.64;99749.38;5045648;28;20047;-39
2023/03/24 02:06:40;;;;;;;5.07;1.55;;;;;;;13.82;74.12;99752.94;5060850;28;20032;-39
2023/03/24 02:09:06;;;;;;;8.32;1.70;;;;;;;13.88;73.80;99759.84;5063849;28;20491;-41
2023/03/24 02:11:34;;;;;;;8.73;1.77;;;;;;;14.00;73.50;99751.75;5060421;28;20059;-39
2023/03/24 02:13:59;;;;;;;6.38;1.40;;;;;;;13.89;72.98;99756.31;5064197;28;20398;-39
2023/03/24 02:16:58;;;;;;;7.95;1.65;;;;;;;13.97;72.43;99757.03;5041299;28;20039;-43
2023/03/24 02:19:51;;;;;;;4.82;1.30;;;;;;;13.79;72.68;99763.47;5057583;28;20036;-40
2023/03/24 02:22:32;;;;;;;6.75;1.50;;;;;;;13.76;71.67;99778.38;5038092;28;20033;-43
2023/03/24 02:25:20;;;;;;;6.63;1.40;;;;;;;13.59;72.41;99781.28;5059539;28;20514;-39
2023/03/24 02:27:51;;;;;;;5.53;1.33;;;;;;;13.52;73.16;99784.03;5056410;28;20033;-40
2023/03/24 02:30:16;;;;;;;11.10;1.90;;;;;;;13.63;72.89;99788.19;5056251;28;20037;-40
2023/03/24 02:32:58;;;;;;;10.45;1.88;;;;;;;13.37;73.26;99782.50;5042719;28;20094;-40
2023/03/24 02:35:46;;;;;;;9.23;1.92;;;;;;;13.61;71.72;99795.19;5056012;28;20227;-40
2023/03/24 02:38:33;;;;;;;7.75;1.48;;;;;;;13.54;71.35;99790.09;5054954;28;20029;-40
2023/03/24 02:41:22;;;;;;;5.68;1.38;;;;;;;13.30;72.01;99800.03;5062862;28;20473;-41
2023/03/24 02:44:05;;;;;;;9.68;1.55;;;;;;;13.22;71.94;99809.78;5060396;28;20085;-40
2023/03/24 02:46:38;;;;;;;10.15;1.60;;;;;;;13.52;72.21;99812.81;5061415;28;20032;-37
2023/03/24 02:49:25;;;;;;;8.30;1.70;;;;;;;13.08;73.15;99819.53;5064948;28;20054;-40
2023/03/24 02:52:05;;;;;;;11.50;1.60;;;;;;;12.83;73.47;99813.75;5061013;28;20037;-40
2023/03/24 02:54:50;;;;;;;8.48;1.35;;;;;;;12.82;73.85;99827.72;5061134;28;20589;-39
2023/03/24 02:57:23;;;;;;;10.65;1.50;;;;;;;12.96;73.53;99838.88;5059537;28;20064;-42
2023/03/24 02:59:58;;;;;;;10.35;1.73;;;;;;;12.54;74.78;99840.25;5064204;28;20033;-41
2023/03/24 03:02:31;;;;;;;7.25;1.75;;;;;;;13.06;73.23;99838.75;5060406;28;20103;-40
2023/03/24 03:05:02;;;;;;;9.90;1.77;;;;;;;12.92;73.80;99852.03;5044077;28;20048;-40
2023/03/24 03:07:32;;;;;;;11.20;1.90;;;;;;;12.70;74.95;99853.13;5060493;28;20040;-41
2023/03/24 03:10:23;;;;;;;13.65;2.05;;;;;;;12.78;74.18;99860.03;5064764;28;20032;-43
2023/03/24 03:12:53;;;;;;;12.05;2.10;;;;;;;12.93;74.32;99851.97;5048502;28;20035;-40
2023/03/24 03:15:23;;;;;;;11.93;1.92;;;;;;;12.91;74.54;99863.38;5042772;28;20128;-40
2023/03/24 03:17:57;;;;;;;11.05;1.83;;;;;;;12.72;74.97;99854.00;5065043;28;20051;-41
2023/03/24 03:20:24;;;;;;;13.45;2.38;;;;;;;12.74;74.19;99853.13;5042742;28;20051;-40
2023/03/24 03:22:57;;;;;;;12.07;2.03;;;;;;;12.71;74.16;99862.72;5065143;28;20041;-44
2023/03/24 03:25:27;;;;;;;9.45;1.92;;;;;;;12.37;75.99;99873.56;5062445;28;20082;-39
2023/03/24 03:27:57;;;;;;;10.60;1.77;;;;;;;12.63;74.58;99865.41;5061932;28;20033;-39
2023/03/24 03:30:28;;;;;;;13.30;1.98;;;;;;;12.67;74.31;99867.13;5062136;28;20505;-40
2023/03/24 03:33:09;;;;;;;9.90;1.90;;;;;;;12.76;74.36;99874.00;5063685;28;20024;-40
2023/03/24 03:35:41;;;;;;;13.07;2.72;;;;;;;12.57;75.21;99874.19;5058864;28;20045;-40
2023/03/24 03:38:17;;;;;;;10.95;2.20;;;;;;;12.75;74.12;99880.09;5063097;28;20039;-40
2023/03/24 03:40:54;;;;;;;12.43;2.20;;;;;;;12.94;73.64;99884.25;5060894;28;20040;-40
2023/03/24 03:43:21;;;;;;;14.07;2.38;;;;;;;12.75;74.10;99875.75;5060972;28;20032;-40
2023/03/24 03:45:46;;;;;;;9.75;1.95;;;;;;;12.87;74.41;99885.19;5063874;28;20032;-41
2023/03/24 03:48:12;;;;;;;10.02;2.20;;;;;;;12.59;75.48;99890.75;5066182;28;20035;-40
2023/03/24 03:50:38;;;;;;;13.65;2.28;;;;;;;12.76;74.59;99885.31;5060694;28;20085;-43
2023/03/24 03:53:05;;;;;;;12.05;2.13;;;;;;;12.81;74.59;99891.34;5065879;28;20024;-41
2023/03/24 03:55:31;;;;;;;11.68;2.15;;;;;;;12.86;74.61;99889.59;5040996;28;20059;-41
2023/03/24 03:57:57;;;;;;;17.90;2.30;;;;;;;12.43;75.28;99889.19;5063102;28;20119;-41
2023/03/24 04:00:22;;;;;;;12.48;2.38;;;;;;;12.60;74.76;99894.22;5059471;28;20570;-41
2023/03/24 04:03:06;;;;;;;10.75;2.28;;;;;;;12.72;74.53;99886.25;5066860;28;20064;-43
2023/03/24 04:05:35;;;;;;;13.13;2.30;;;;;;;12.38;75.10;99895.34;5061229;28;20036;-43
2023/03/24 04:08:38;;;;;;;12.70;2.60;;;;;;;12.66;74.37;99902.00;5063148;28;20496;-42
2023/03/24 04:11:22;;;;;;;14.30;2.20;;;;;;;12.74;73.84;99901.94;5059888;28;20040;-39
2023/03/24 04:14:01;;;;;;;14.18;2.08;;;;;;;12.85;73.37;99907.91;5060831;28;20567;-39
2023/03/24 04:16:53;;;;;;;13.02;2.05;;;;;;;12.69;73.59;99920.25;5059629;28;20372;-44
2023/03/24 04:19:40;;;;;;;15.02;2.35;;;;;;;12.70;73.32;99911.53;5063188;28;20071;-39
2023/03/24 04:22:26;;;;;;;12.90;2.53;;;;;;;12.24;74.03;99924.19;5050617;28;20111;-43
2023/03/24 04:24:58;;;;;;;13.75;2.35;;;;;;;12.55;73.19;99919.56;5064125;28;20092;-40
2023/03/24 04:27:30;;;;;;;14.15;2.20;;;;;;;12.83;72.23;99920.13;5063532;28;20025;-41
2023/03/24 04:30:07;;;;;;;15.30;2.60;;;;;;;12.67;72.30;99936.88;5066437;28;20107;-40
2023/03/24 04:32:47;;;;;;;20.42;2.58;;;;;;;12.45;72.50;99925.72;5061771;28;20104;-40
2023/03/24 04:35:30;;;;;;;14.18;2.63;;;;;;;12.45;72.27;99931.84;5058716;28;20070;-42
2023/03/24 04:38:02;;;;;;;17.00;2.60;;;;;;;12.31;73.24;99944.19;5062361;28;20130;-42
2023/03/24 04:40:31;;;;;;;16.70;3.10;;;;;;;12.58;72.21;99943.91;5058783;28;20031;-41
2023/03/24 04:43:03;;;;;;;16.05;2.63;;;;;;;12.05;73.94;99947.00;5064323;28;20035;-38
2023/03/24 04:45:32;;;;;;;15.18;2.42;;;;;;;12.53;73.16;99937.00;5061575;28;20040;-42
2023/03/24 04:47:59;;;;;;;20.75;2.42;;;;;;;12.40;72.90;99944.09;5066057;28;20036;-41
2023/03/24 04:50:39;;;;;;;18.35;2.67;;;;;;;12.40;72.95;99951.94;5061201;28;20390;-41
2023/03/24 04:53:07;;;;;;;20.65;2.53;;;;;;;12.30;73.58;99952.03;5063152;28;20033;-39
2023/03/24 04:55:57;;;;;;;15.70;2.47;;;;;;;12.26;73.86;99972.06;5039714;28;20041;-40
2023/03/24 04:58:22;;;;;;;18.30;3.00;;;;;;;12.05;75.01;99962.66;5061734;28;20034;-40
2023/03/24 05:00:48;;;;;;;16.67;2.50;;;;;;;12.34;73.94;99954.59;5066269;28;20558;-41
2023/03/24 05:03:15;;;;;;;18.33;2.90;;;;;;;12.20;74.11;99954.69;5059884;28;20507;-40
2023/03/24 05:05:48;;;;;;;19.67;3.20;;;;;;;12.39;74.23;99963.25;5062636;28;20037;-41
2023/03/24 05:08:15;;;;;;;22.88;3.33;;;;;;;12.54;73.45;99973.59;5059073;28;20033;-41
2023/03/24 05:10:40;;;;;;;21.05;2.67;;;;;;;12.43;74.47;99974.56;5063591;28;20074;-40
2023/03/24 05:13:07;;;;;;;14.90;2.60;;;;;;;12.41;74.20;99977.19;5064038;28;20040;-40
2023/03/24 05:15:33;;;;;;;21.42;3.10;;;;;;;12.08;75.39;99983.53;5059785;28;20033;-39
2023/03/24 05:17:59;;;;;;;18.13;2.53;;;;;;;12.36;74.45;99975.50;5061640;28;20067;-37
2023/03/24 05:20:25;;;;;;;25.45;3.10;;;;;;;12.39;74.76;99993.75;5040672;28;20526;-42
2023/03/24 05:22:52;;;;;;;18.08;2.70;;;;;;;12.55;73.41;100004.09;5061654;28;20402;-38
2023/03/24 05:25:18;;;;;;;19.52;2.85;;;;;;;12.48;73.62;99997.19;5056792;28;20036;-36
2023/03/24 05:27:43;;;;;;;14.25;2.75;;;;;;;12.77;72.60;100003.88;5061971;28;20459;-38
2023/03/24 05:30:10;;;;;;;19.90;2.80;;;;;;;12.47;73.53;99999.78;5060943;28;20028;-38
2023/03/24 05:32:35;;;;;;;18.98;2.92;;;;;;;12.25;74.21;99996.50;5059596;28;20482;-39
2023/03/24 05:35:01;;;;;;;14.80;2.40;;;;;;;12.54;73.45;100002.34;5061276;28;20048;-39
2023/03/24 05:37:26;;;;;;;20.60;2.50;;;;;;;12.45;73.01;100004.16;5058786;28;20028;-37
2023/03/24 05:39:52;;;;;;;13.98;2.53;;;;;;;12.55;73.24;100011.06;5061821;28;20032;-39
2023/03/24 05:42:18;;;;;;;19.00;2.83;;;;;;;12.60;72.70;100010.16;5056617;28;20479;-39
2023/03/24 05:44:44;;;;;;;17.48;2.50;;;;;;;12.58;73.25;100017.13;5062235;28;20434;-39
2023/03/24 05:47:11;;;;;;;14.82;2.50;;;;;;;12.55;72.42;100017.16;5061845;28;20062;-44
2023/03/24 05:49:37;;;;;;;19.02;3.17;;;;;;;12.85;72.20;100029.09;5058860;28;20041;-44
2023/03/24 05:52:03;;;;;;;16.40;2.78;;;;;;;12.53;72.67;100034.59;5061483;28;20038;-37
2023/03/24 05:54:28;;;;;;;13.75;2.28;;;;;;;12.43;73.26;100021.63;5054211;28;20491;-38
2023/03/24 05:56:54;;;;;;;19.27;2.38;;;;;;;12.63;73.01;100021.44;5062056;28;20036;-38
2023/03/24 05:59:20;;;;;;;16.98;2.70;;;;;;;12.44;72.92;100032.03;5058887;28;20838;-42
2023/03/24 06:01:47;;;;;;;15.93;2.67;;;;;;;12.52;72.25;100037.22;5065699;28;20082;-39
2023/03/24 06:04:12;;;;;;;15.43;3.00;;;;;;;12.98;70.98;100045.56;5064134;28;20028;-39
2023/03/24 06:06:39;;;;;;;17.05;2.80;;;;;;;12.84;71.49;100039.56;5060982;28;20037;-40
2023/03/24 06:09:05;;;;;;;23.58;3.13;;;;;;;12.59;72.82;100038.91;5064011;28;20128;-39
2023/03/24 06:11:31;;;;;;;18.60;2.83;;;;;;;12.43;72.73;100050.38;5061363;28;21221;-39
2023/03/24 06:13:59;;;;;;;16.30;2.78;;;;;;;12.52;72.31;100034.59;5064598;28;20127;-38
2023/03/24 06:16:28;;;;;;;20.42;3.08;;;;;;;12.50;72.43;100047.69;5062231;28;20082;-40
2023/03/24 06:18:54;;;;;;;17.20;2.65;;;;;;;12.82;71.57;100039.56;5065054;28;20376;-39
2023/03/24 06:21:20;;;;;;;18.30;2.75;;;;;;;12.52;72.33;100055.53;5060920;28;20062;-40
2023/03/24 06:23:46;;;;;;;18.33;2.70;;;;;;;12.60;71.75;100054.59;5066709;28;20047;-37
2023/03/24 06:26:13;;;;;;;15.30;2.38;;;;;;;12.97;70.70;100049.03;5066104;28;20108;-43
2023/03/24 06:28:40;;;;;;;20.42;2.72;;;;;;;12.82;71.09;100062.25;5070229;28;20040;-38
2023/03/24 06:31:17;;;;;;;19.48;3.30;;;;;;;12.70;71.48;100064.97;5064519;28;20512;-39
2023/03/24 06:33:42;;;;;;;15.93;2.60;;;;;;;12.55;71.80;100073.81;5058232;28;20047;-39
2023/03/24 06:36:10;;;;;;;19.00;2.55;;;;;;;12.50;71.81;100068.59;5062446;28;20025;-38
2023/03/24 06:38:35;;;;;;;18.38;3.17;;;;;;;12.45;71.91;100059.06;5057469;28;20044;-41
2023/03/24 06:41:02;;;;;;;18.67;2.67;;;;;;;12.79;71.03;100080.59;5060185;28;20029;-39
2023/03/24 06:43:28;;;;;;;16.02;2.50;;;;;;;12.68;71.56;100075.47;5056834;28;20050;-39
2023/03/24 06:45:54;;;;;;;20.75;2.95;;;;;;;13.11;70.05;100083.81;5061119;28;20414;-41
2023/03/24 06:48:20;;;;;;;17.80;2.67;;;;;;;13.23;69.46;100078.50;5058291;28;20032;-42
2023/03/24 06:50:45;;;;;;;16.27;2.42;;;;;;;13.27;69.39;100084.53;5062729;28;20039;-40
2023/03/24 06:53:11;;;;;;;13.27;2.55;;;;;;;13.23;69.53;100099.44;5060921;28;20045;-40
2023/03/24 06:55:36;;;;;;;18.98;2.90;;;;;;;12.94;70.19;100101.38;5062167;28;20128;-39
2023/03/24 06:58:02;;;;;;;19.65;2.55;;;;;;;13.48;68.86;100100.00;5059904;28;20032;-39
2023/03/24 07:00:28;;;;;;;14.38;2.55;;;;;;;13.24;69.76;100088.03;5056730;28;20036;-38
2023/03/24 07:02:54;;;;;;;14.85;2.47;;;;;;;13.40;69.02;100096.63;5060448;28;20554;-41
2023/03/24 07:05:21;;;;;;;16.00;2.70;;;;;;;13.37;68.46;100100.13;5056300;28;20517;-43
2023/03/24 07:07:47;;;;;;;21.40;3.08;;;;;;;13.39;68.85;100100.13;5060397;28;20031;-38
2023/03/24 07:10:12;;;;;;;19.27;2.70;;;;;;;13.50;68.31;100105.25;5060408;28;20315;-39
2023/03/24 07:12:39;;;;;;;20.80;2.70;;;;;;;13.71;67.59;100105.03;5056628;28;20086;-38
2023/03/24 07:15:06;;;;;;;19.48;2.50;;;;;;;13.80;67.49;100107.50;5060068;28;20406;-38
2023/03/24 07:17:32;;;;;;;17.45;2.85;;;;;;;14.01;66.05;100119.50;5055978;28;20036;-40
2023/03/24 07:19:57;;;;;;;20.67;2.75;;;;;;;13.94;66.87;100120.47;5060172;28;20029;-38
2023/03/24 07:22:23;;;;;;;15.90;2.72;;;;;;;14.05;65.91;100118.56;5021862;28;20041;-38
2023/03/24 07:24:48;;;;;;;18.48;3.00;;;;;;;14.56;64.43;100124.91;5059998;28;20143;-39
2023/03/24 07:27:13;;;;;;;11.57;2.42;;;;;;;14.54;64.14;100131.91;5062881;28;20451;-40
2023/03/24 07:29:39;;;;;;;16.27;2.47;;;;;;;14.32;65.18;100136.56;5059649;28;20407;-38
2023/03/24 07:32:06;;;;;;;18.08;2.83;;;;;;;13.66;66.69;100141.72;5045375;28;20028;-41
2023/03/24 07:34:32;;;;;;;14.88;2.47;;;;;;;13.85;66.82;100144.13;5059230;28;20051;-40
2023/03/24 07:36:58;;;;;;;16.95;2.63;;;;;;;14.09;66.16;100143.84;5063602;28;20112;-40
2023/03/24 07:39:23;;;;;;;16.33;2.60;;;;;;;13.93;66.26;100142.31;5061076;28;20111;-39
2023/03/24 07:41:48;;;;;;;14.05;2.30;;;;;;;13.95;65.94;100148.41;5064033;28;20052;-40
2023/03/24 07:44:14;;;;;;;14.63;2.45;;;;;;;13.73;66.73;100146.00;5060060;28;20024;-38
2023/03/24 07:46:40;;;;;;;16.17;2.55;;;;;;;14.05;66.28;100144.78;5062480;28;20246;-38
2023/03/24 07:49:05;;;;;;;14.85;2.70;;;;;;;13.99;66.46;100148.34;5063165;28;20090;-39
2023/03/24 07:51:31;;;;;;;20.42;2.85;;;;;;;13.42;67.12;100147.22;5058872;28;20044;-40
2023/03/24 07:53:56;;;;;;;15.27;2.75;;;;;;;13.79;66.45;100151.19;5063264;28;20557;-40
2023/03/24 07:56:22;;;;;;;18.60;2.72;;;;;;;13.88;66.32;100152.84;5060101;28;20469;-40
2023/03/24 07:58:48;;;;;;;15.57;2.20;;;;;;;14.20;65.30;100148.09;5063687;28;20116;-38
2023/03/24 08:01:14;;;;;;;16.35;2.53;;;;;;;13.92;65.71;100154.53;5058473;28;20076;-39
2023/03/24 08:03:40;;;;;;;17.27;2.75;;;;;;;14.44;65.53;100156.53;5062339;28;20033;-39
2023/03/24 08:06:07;;;;;;;12.80;2.42;;;;;;;14.68;63.66;100158.81;5044899;28;20055;-40
2023/03/24 08:08:33;;;;;;;16.48;2.60;;;;;;;14.18;64.61;100149.84;5059120;28;20403;-38
2023/03/24 08:10:58;;;;;;;17.40;2.85;;;;;;;14.31;63.96;100165.41;5062807;28;20033;-39
2023/03/24 08:13:25;;;;;;;16.00;2.40;;;;;;;14.37;64.33;100166.25;5058608;28;20035;-42
2023/03/24 08:15:52;;;;;;;12.32;2.20;;;;;;;14.39;64.03;100172.34;5064181;28;20044;-41
2023/03/24 08:18:19;;;;;;;15.75;2.20;;;;;;;14.75;63.30;100172.72;5060544;28;20033;-40
2023/03/24 08:20:45;;;;;;;12.02;2.35;;;;;;;14.16;64.55;100167.34;5066114;28;20037;-37
2023/03/24 08:23:10;;;;;;;17.08;2.55;;;;;;;14.38;64.33;100175.84;5066047;28;20040;-38
2023/03/24 08:25:36;;;;;;;13.50;2.15;;;;;;;14.11;64.11;100182.25;5061626;28;20024;-40
2023/03/24 08:28:01;;;;;;;17.02;2.45;;;;;;;14.37;64.03;100176.72;5064820;28;20033;-38
2023/03/24 08:30:27;;;;;;;13.55;2.60;;;;;;;14.03;63.82;100188.47;5061839;28;20039;-44
2023/03/24 08:32:57;;;;;;;12.95;2.20;;;;;;;13.95;64.49;100196.44;5049489;28;20145;-40
2023/03/24 08:35:44;;;;;;;15.95;2.25;;;;;;;14.13;63.44;100193.59;5061009;28;20052;-39
2023/03/24 08:38:10;;;;;;;9.65;1.90;;;;;;;14.12;63.78;100196.25;5065457;28;20036;-43
2023/03/24 08:40:37;;;;;;;12.82;1.90;;;;;;;13.85;64.30;100199.16;5061643;28;20028;-38
2023/03/24 08:43:07;;;;;;;13.38;2.25;;;;;;;13.93;64.47;100203.44;5064661;28;20084;-38
2023/03/24 08:45:33;;;;;;;15.88;2.65;;;;;;;13.68;64.61;100205.44;5059450;28;20033;-38
2023/03/24 08:48:01;;;;;;;11.05;2.20;;;;;;;14.15;63.67;100214.53;5063466;28;20035;-38
2023/03/24 08:50:29;;;;;;;11.82;2.28;;;;;;;14.02;63.97;100213.84;5059602;28;20092;-38
2023/03/24 08:52:55;;;;;;;13.27;2.60;;;;;;;13.92;64.68;100209.56;5063690;28;20025;-40
2023/03/24 08:55:22;;;;;;;17.30;2.38;;;;;;;14.18;63.38;100204.03;5061441;28;20348;-38
2023/03/24 08:57:48;;;;;;;11.45;2.40;;;;;;;14.01;64.12;100219.09;5067162;28;20029;-38
2023/03/24 09:00:15;;;;;;;11.32;2.42;;;;;;;13.89;64.66;100217.47;5061693;28;20483;-39
2023/03/24 09:02:45;;;;;;;16.35;3.10;;;;;;;14.30;62.98;100222.22;5064900;28;20041;-43
2023/03/24 09:05:11;;;;;;;16.60;2.60;;;;;;;14.41;62.93;100224.75;5059394;28;20492;-37
2023/03/24 09:07:37;;;;;;;13.93;2.40;;;;;;;14.27;62.77;100227.53;5063850;28;20070;-42
2023/03/24 09:10:05;;;;;;;17.25;2.67;;;;;;;13.70;63.12;100232.50;5064639;28;20033;-38
2023/03/24 09:12:30;;;;;;;13.80;2.50;;;;;;;13.76;61.89;100219.34;5060229;28;20314;-38
2023/03/24 09:14:56;;;;;;;14.70;2.20;;;;;;;14.06;62.36;100239.13;5062853;28;20454;-39
2023/03/24 09:17:21;;;;;;;24.30;2.80;;;;;;;14.02;62.51;100237.44;5062088;28;20052;-40
2023/03/24 09:19:46;;;;;;;18.73;2.72;;;;;;;14.25;61.91;100242.41;5061797;28;20508;-39
2023/03/24 09:22:12;;;;;;;21.00;2.60;;;;;;;14.51;61.32;100236.88;5064172;28;20567;-39
2023/03/24 09:24:37;;;;;;;16.50;2.60;;;;;;;14.61;61.48;100248.97;5058349;28;20039;-39
2023/03/24 09:27:03;;;;;;;11.75;2.10;;;;;;;14.33;61.81;100245.81;5064056;28;20685;-39
2023/03/24 09:29:29;;;;;;;19.38;2.92;;;;;;;14.39;61.45;100253.63;5060314;28;20104;-39
2023/03/24 09:31:56;;;;;;;13.10;2.25;;;;;;;14.60;61.20;100247.25;5063288;28;20461;-38
2023/03/24 09:34:21;;;;;;;14.98;2.33;;;;;;;14.97;60.77;100247.59;5062179;28;20097;-41
2023/03/24 09:36:47;;;;;;;19.55;2.60;;;;;;;14.38;62.31;100258.91;5057018;28;20037;-38
2023/03/24 09:39:13;;;;;;;15.55;2.45;;;;;;;14.35;62.19;100257.13;5060089;28;20029;-38
2023/03/24 09:41:38;;;;;;;15.20;2.28;;;;;;;14.50;61.51;100250.88;5057154;28;20388;-39
2023/03/24 09:44:06;;;;;;;19.58;2.70;;;;;;;14.73;60.89;100250.56;5061196;28;20029;-38
2023/03/24 09:46:55;;;;;;;13.52;2.25;;;;;;;15.15;59.84;100251.72;5056779;28;20028;-36
2023/03/24 09:49:28;;;;;;;15.13;2.30;;;;;;;14.95;60.61;100259.88;5061205;28;20028;-38
2023/03/24 09:52:05;;;;;;;14.88;2.40;;;;;;;14.75;59.74;100256.69;5057364;28;20036;-39
2023/03/24 09:54:51;;;;;;;16.27;2.70;;;;;;;14.71;59.27;100261.09;5057314;28;20102;-41
2023/03/24 09:57:26;;;;;;;21.27;3.50;;;;;;;14.56;59.26;100264.78;5061103;28;20029;-40
2023/03/24 09:59:51;;;;;;;13.68;2.63;;;;;;;15.10;58.84;100249.16;5056583;28;20401;-41
2023/03/24 10:02:21;;;;;;;18.00;2.42;;;;;;;14.92;59.04;100252.94;5059872;28;20077;-39
2023/03/24 10:04:48;;;;;;;13.55;2.83;;;;;;;14.80;59.75;100258.34;5057714;28;20040;-39
2023/03/24 10:07:36;;;;;;;17.50;2.72;;;;;;;15.16;58.59;100250.84;5063083;28;20036;-39
2023/03/24 10:10:03;;;;;;;14.73;2.78;;;;;;;15.01;58.66;100262.41;5058327;28;20033;-39
2023/03/24 10:12:34;;;;;;;14.15;2.67;;;;;;;15.30;57.56;100264.63;5058100;28;20067;-38
2023/03/24 10:15:17;;;;;;;12.70;2.50;;;;;;;14.94;57.15;100269.50;5061316;28;20785;-39
2023/03/24 10:17:49;;;;;;;10.60;1.88;;;;;;;14.99;57.39;100270.34;5056753;28;20190;-39
2023/03/24 10:20:35;;;;;;;10.85;2.10;;;;;;;15.01;57.23;100268.53;5060697;28;20123;-39
2023/03/24 10:23:21;;;;;;;11.52;2.28;;;;;;;15.34;57.20;100264.53;5055940;28;20036;-37
2023/03/24 10:26:04;;;;;;;12.88;2.40;;;;;;;15.93;56.31;100262.69;5057629;28;20051;-38
2023/03/24 10:29:10;;;;;;;12.25;2.30;;;;;;;14.83;58.21;100275.78;5061246;28;20025;-38
2023/03/24 10:31:37;;;;;;;18.48;2.78;;;;;;;15.03;58.46;100264.13;5053845;28;20036;-39
2023/03/24 10:34:03;;;;;;;12.90;2.40;;;;;;;15.86;56.81;100261.06;5061791;28;20150;-43
2023/03/24 10:36:29;;;;;;;12.80;2.10;;;;;;;15.99;56.06;100259.94;5058092;28;20526;-38
2023/03/24 10:38:55;;;;;;;13.98;2.40;;;;;;;15.75;57.51;100279.66;5045402;28;20029;-38
2023/03/24 10:41:23;;;;;;;14.40;2.53;;;;;;;14.97;58.67;100269.47;5063179;28;20382;-39
2023/03/24 10:43:50;;;;;;;15.48;2.80;;;;;;;14.93;59.61;100277.41;5060800;28;20028;-38
2023/03/24 10:46:19;;;;;;;16.27;2.55;;;;;;;15.29;59.03;100263.75;5064225;28;20031;-38
2023/03/24 10:48:51;;;;;;;12.45;2.58;;;;;;;15.66;57.07;100255.31;5060496;28;24667;-39
2023/03/24 10:51:25;;;;;;;11.63;2.30;;;;;;;15.82;57.56;100262.03;5046938;28;20036;-41
2023/03/24 10:54:09;;;;;;;17.88;2.67;;;;;;;16.02;56.93;100256.41;5060181;28;20025;-38
2023/03/24 10:56:49;;;;;;;13.30;2.28;;;;;;;16.39;56.38;100257.44;5059310;28;20033;-38
2023/03/24 10:59:24;;;;;;;18.67;2.53;;;;;;;15.97;57.24;100260.88;5063525;28;20068;-39
2023/03/24 11:01:54;;;;;;;19.17;2.80;;;;;;;15.57;56.98;100268.59;5060639;28;20075;-42
2023/03/24 11:04:20;;;;;;;12.00;2.10;;;;;;;15.74;56.63;100272.66;5065946;28;20529;-37
2023/03/24 11:06:58;;;;;;;12.65;2.30;;;;;;;15.52;58.05;100278.28;5098681;22;20032;-41
2023/03/24 11:09:23;;;;;;;15.18;2.10;;;;;;;15.59;57.68;100269.44;5087702;28;20123;-40
2023/03/24 11:11:51;;;;;;;14.60;2.33;;;;;;;16.03;56.75;100269.53;5091874;28;20059;-43
2023/03/24 11:14:25;;;;;;;13.13;2.33;;;;;;;16.08;55.58;100274.69;5093657;28;20410;-42
2023/03/24 11:16:52;;;;;;;12.55;2.17;;;;;;;16.43;55.19;100274.00;5098338;27;20428;-40
2023/03/24 11:19:23;;;;;;;11.02;2.08;;;;;;;16.22;54.79;100264.78;5106086;27;20114;-40
2023/03/24 11:21:51;;;;;;;12.75;2.45;;;;;;;15.79;55.47;100272.59;5102412;27;20035;-41
2023/03/24 11:24:19;;;;;;;14.68;1.92;;;;;;;15.95;54.74;100281.94;5105720;27;20031;-41
2023/03/24 11:26:50;;;;;;;11.80;2.05;;;;;;;16.60;54.23;100285.09;5102344;27;20027;-40
2023/03/24 11:29:23;;;;;;;8.38;1.52;;;;;;;15.95;54.82;100286.31;5107327;27;20031;-42
2023/03/24 11:31:55;;;;;;;10.32;1.75;;;;;;;15.46;56.53;100305.50;5103760;28;20028;-41
2023/03/24 11:34:37;;;;;;;11.27;1.95;;;;;;;15.53;56.14;100277.41;5106918;27;20108;-41
2023/03/24 11:37:07;;;;;;;9.45;1.40;;;;;;;16.00;55.51;100284.47;5103968;28;20398;-46